Bismarck, Illinois
Current Conditions -  °F | °C
As of 9:55 AM on Monday 24 Nov 2014 (Local Time) from KDNV Reporting Station
Overcast Overcast  
Wind Chill: 22°   Ceiling: 1500
Heat Index: 35°   Visibility: 10mi
Dew Point: 32°   Wind: 29mph
Humidity: 89%   Direction: 240°WSW
Pressure: 29.43"   Gusts: 39mph
Location:  40.26°N, 87.61°W
Report Text: KDNV 241555Z AUTO 24025G34KT 10SM OVC015 02/00 A2943 RMK AO2 T00180002
Loading
Personal Weather Stations






























Interactive Weather Map New forecast layout! Learn more

10-Day Weather Forecast

Advertisements
Track Severe Weather on mobile